Time;durP1;ratioP1;P1;durP2;ratioP2;P2;SDS_P1;SDS_P2;PMS_P1;PMS_P2;Temp;Humidity;BMP_temperature;BMP_pressure;BME280_temperature;BME280_humidity;BME280_pressure;Samples;Min_cycle;Max_cycle;Signal;HPM_P1;HPM_P2
2022/07/24 00:01:04;;;;;;;10.57;7.93;;;;;;;17.93;100.00;101846.56;5069486;28;20053;-32
2022/07/24 00:03:32;;;;;;;9.43;8.40;;;;;;;17.94;100.00;101842.59;5071087;28;20358;-33
2022/07/24 00:06:01;;;;;;;8.05;6.35;;;;;;;17.96;100.00;101850.75;5070556;28;20149;-31
2022/07/24 00:08:29;;;;;;;8.00;6.30;;;;;;;17.96;100.00;101848.75;5070222;28;20055;-30
2022/07/24 00:10:57;;;;;;;6.95;5.20;;;;;;;17.95;100.00;101852.72;5070600;28;20456;-39
2022/07/24 00:13:25;;;;;;;8.13;6.38;;;;;;;17.96;100.00;101851.56;5070561;28;20056;-32
2022/07/24 00:15:53;;;;;;;11.68;8.80;;;;;;;17.97;100.00;101853.25;5070255;28;20055;-32
2022/07/24 00:18:21;;;;;;;8.10;5.95;;;;;;;17.95;100.00;101849.91;5070668;28;20051;-39
2022/07/24 00:20:49;;;;;;;6.65;5.43;;;;;;;17.94;100.00;101855.88;5072719;28;20132;-31
2022/07/24 00:23:18;;;;;;;5.28;4.70;;;;;;;17.93;100.00;101852.22;5074297;28;20127;-30
2022/07/24 00:25:46;;;;;;;11.95;8.95;;;;;;;17.91;100.00;101848.88;5074202;28;20072;-31
2022/07/24 00:28:14;;;;;;;8.82;7.80;;;;;;;17.92;100.00;101844.06;5072952;28;20055;-32
2022/07/24 00:30:42;;;;;;;7.25;6.28;;;;;;;17.91;100.00;101843.22;5074239;28;20039;-32
2022/07/24 00:33:10;;;;;;;7.70;6.05;;;;;;;17.90;100.00;101842.41;5073955;28;20353;-29
2022/07/24 00:35:38;;;;;;;7.15;5.78;;;;;;;17.90;100.00;101850.03;5073380;28;20041;-30
2022/07/24 00:38:06;;;;;;;6.80;5.50;;;;;;;17.90;100.00;101844.38;5073795;28;20045;-39
2022/07/24 00:40:35;;;;;;;8.45;6.13;;;;;;;17.88;100.00;101853.19;5074029;28;20047;-37
2022/07/24 00:43:04;;;;;;;8.60;6.57;;;;;;;17.85;100.00;101845.34;5073039;28;20047;-30
2022/07/24 00:45:32;;;;;;;8.75;6.70;;;;;;;17.84;100.00;101845.69;5074180;28;20075;-33
2022/07/24 00:48:00;;;;;;;8.07;7.05;;;;;;;17.83;100.00;101842.03;5073507;28;20049;-31
2022/07/24 00:50:29;;;;;;;8.07;6.70;;;;;;;17.82;100.00;101845.16;5073225;28;20136;-30
2022/07/24 00:52:57;;;;;;;7.72;6.45;;;;;;;17.80;100.00;101837.03;5073588;28;20044;-32
2022/07/24 00:55:26;;;;;;;9.20;7.68;;;;;;;17.78;100.00;101838.53;5073674;28;20076;-32
2022/07/24 00:57:55;;;;;;;9.55;6.90;;;;;;;17.76;100.00;101838.84;5072955;28;20054;-31
2022/07/24 01:00:24;;;;;;;8.80;7.28;;;;;;;17.74;100.00;101831.84;5073695;28;20051;-40
2022/07/24 01:02:52;;;;;;;10.55;8.13;;;;;;;17.73;100.00;101835.84;5072602;28;20133;-36
2022/07/24 01:05:20;;;;;;;10.38;8.43;;;;;;;17.70;100.00;101833.66;5073585;28;20048;-39
2022/07/24 01:07:48;;;;;;;9.93;8.18;;;;;;;17.69;100.00;101843.28;5073356;28;20052;-31
2022/07/24 01:10:16;;;;;;;10.10;8.38;;;;;;;17.68;100.00;101841.63;5072407;28;20070;-33
2022/07/24 01:12:44;;;;;;;8.75;7.65;;;;;;;17.66;100.00;101841.09;5073192;28;20044;-30
2022/07/24 01:15:13;;;;;;;8.45;7.55;;;;;;;17.63;100.00;101828.44;5073068;28;20058;-33
2022/07/24 01:17:43;;;;;;;8.43;7.32;;;;;;;17.61;100.00;101827.91;5072655;28;20051;-32
2022/07/24 01:20:11;;;;;;;11.13;8.40;;;;;;;17.58;100.00;101827.75;5073033;28;20553;-36
2022/07/24 01:22:41;;;;;;;8.82;7.70;;;;;;;17.56;100.00;101826.09;5073839;28;20131;-31
2022/07/24 01:25:10;;;;;;;9.73;8.73;;;;;;;17.54;100.00;101817.09;5072051;28;20039;-36
2022/07/24 01:27:39;;;;;;;10.43;8.38;;;;;;;17.50;100.00;101821.72;5073374;28;20508;-29
2022/07/24 01:30:08;;;;;;;10.80;9.43;;;;;;;17.50;100.00;101826.53;5072729;28;20135;-32
2022/07/24 01:32:36;;;;;;;13.68;10.35;;;;;;;17.47;100.00;101815.88;5071580;28;20176;-31
2022/07/24 01:35:04;;;;;;;13.40;11.57;;;;;;;17.47;100.00;101822.34;5072641;28;20047;-32
2022/07/24 01:37:32;;;;;;;15.27;12.35;;;;;;;17.44;100.00;101816.53;5073220;28;20052;-30
2022/07/24 01:40:01;;;;;;;13.25;11.65;;;;;;;17.41;100.00;101818.00;5072054;28;20464;-36
2022/07/24 01:42:29;;;;;;;15.05;13.40;;;;;;;17.40;100.00;101813.50;5072955;28;20056;-30
2022/07/24 01:44:57;;;;;;;16.27;13.40;;;;;;;17.36;100.00;101806.03;5072479;28;20050;-35
2022/07/24 01:47:25;;;;;;;14.75;12.63;;;;;;;17.35;100.00;101807.19;5072407;28;20131;-36
2022/07/24 01:49:53;;;;;;;14.70;11.55;;;;;;;17.33;100.00;101801.03;5072626;28;20048;-39
2022/07/24 01:52:20;;;;;;;14.13;12.63;;;;;;;17.33;100.00;101809.50;5071960;28;20032;-34
2022/07/24 01:54:48;;;;;;;13.45;11.43;;;;;;;17.32;100.00;101805.84;5072447;28;20398;-30
2022/07/24 01:57:18;;;;;;;16.27;13.07;;;;;;;17.33;100.00;101798.22;5072575;28;20494;-31
2022/07/24 01:59:46;;;;;;;15.85;13.45;;;;;;;17.32;100.00;101796.53;5071419;28;20041;-31
2022/07/24 02:02:16;;;;;;;13.23;11.82;;;;;;;17.30;100.00;101794.03;5072505;28;20048;-40
2022/07/24 02:04:44;;;;;;;12.85;11.32;;;;;;;17.30;100.00;101796.03;5072638;28;20056;-32
2022/07/24 02:07:12;;;;;;;11.93;10.70;;;;;;;17.29;100.00;101798.00;5071291;28;20096;-31
2022/07/24 02:09:40;;;;;;;15.75;12.13;;;;;;;17.30;100.00;101798.84;5072299;28;20123;-30
2022/07/24 02:12:08;;;;;;;11.50;10.30;;;;;;;17.31;100.00;101789.22;5072004;28;20055;-31
2022/07/24 02:14:37;;;;;;;10.90;9.73;;;;;;;17.31;100.00;101795.72;5071179;28;20070;-37
2022/07/24 02:17:05;;;;;;;11.50;9.07;;;;;;;17.32;100.00;101788.91;5072174;28;20048;-31
2022/07/24 02:19:33;;;;;;;10.85;7.78;;;;;;;17.37;100.00;101787.94;5072266;28;20509;-33
2022/07/24 02:22:01;;;;;;;9.38;6.70;;;;;;;17.41;100.00;101788.94;5071160;28;20063;-35
2022/07/24 02:24:29;;;;;;;10.32;6.45;;;;;;;17.45;100.00;101785.16;5072240;28;20045;-32
2022/07/24 02:26:57;;;;;;;11.10;6.68;;;;;;;17.52;100.00;101784.72;5071488;28;20485;-30
2022/07/24 02:29:30;;;;;;;12.38;6.45;;;;;;;17.63;100.00;101776.78;5071557;28;20076;-31
2022/07/24 02:32:00;;;;;;;11.48;5.45;;;;;;;17.80;100.00;101765.59;5071623;28;20094;-31
2022/07/24 02:34:28;;;;;;;9.88;5.47;;;;;;;17.96;100.00;101752.72;5071137;28;20477;-31
2022/07/24 02:36:56;;;;;;;9.52;4.60;;;;;;;18.06;100.00;101760.88;5071561;28;20048;-32
2022/07/24 02:39:23;;;;;;;9.80;4.63;;;;;;;18.15;100.00;101763.75;5071768;28;20090;-35
2022/07/24 02:41:51;;;;;;;8.70;4.53;;;;;;;18.21;100.00;101757.59;5070594;28;20044;-30
2022/07/24 02:44:19;;;;;;;8.73;4.32;;;;;;;18.28;100.00;101750.63;5070870;28;20052;-39
2022/07/24 02:46:47;;;;;;;8.15;3.80;;;;;;;18.33;100.00;101758.97;5071551;28;20421;-37
2022/07/24 02:49:16;;;;;;;8.57;3.60;;;;;;;18.34;100.00;101752.16;5070744;28;20114;-33
2022/07/24 02:51:44;;;;;;;8.25;3.80;;;;;;;18.35;100.00;101756.63;5071254;28;20083;-34
2022/07/24 02:54:12;;;;;;;10.52;3.80;;;;;;;18.37;100.00;101751.50;5071539;28;20044;-34
2022/07/24 02:56:40;;;;;;;7.13;3.40;;;;;;;18.37;100.00;101751.50;5070812;28;20399;-37
2022/07/24 02:59:07;;;;;;;9.52;3.65;;;;;;;18.39;100.00;101754.78;5071606;28;20049;-36
2022/07/24 03:01:35;;;;;;;5.05;3.10;;;;;;;18.41;100.00;101747.66;5071365;28;20040;-34
2022/07/24 03:04:03;;;;;;;6.93;3.20;;;;;;;18.42;100.00;101738.00;5070528;28;20056;-39
2022/07/24 03:06:34;;;;;;;6.47;2.70;;;;;;;18.48;100.00;101733.03;5071206;28;20417;-29
2022/07/24 03:09:02;;;;;;;9.20;3.10;;;;;;;18.50;100.00;101727.88;5071300;28;20052;-35
2022/07/24 03:11:31;;;;;;;6.20;3.13;;;;;;;18.53;100.00;101732.88;5070555;28;20049;-33
2022/07/24 03:13:59;;;;;;;7.53;3.17;;;;;;;18.55;100.00;101730.56;5071084;28;20052;-30
2022/07/24 03:16:27;;;;;;;5.63;2.90;;;;;;;18.57;100.00;101731.06;5070720;28;20584;-33
2022/07/24 03:18:54;;;;;;;5.05;2.80;;;;;;;18.59;100.00;101731.56;5070914;28;20055;-30
2022/07/24 03:21:22;;;;;;;7.07;2.90;;;;;;;18.62;100.00;101721.59;5071641;28;20052;-32
2022/07/24 03:24:11;;;;;;;5.82;2.65;;;;;;;18.61;100.00;101722.75;5070412;28;20060;-38
2022/07/24 03:26:39;;;;;;;6.30;3.03;;;;;;;18.61;100.00;101723.59;5071325;28;20051;-33
2022/07/24 03:29:07;;;;;;;5.43;2.92;;;;;;;18.62;100.00;101716.75;5070923;28;20040;-34
2022/07/24 03:31:35;;;;;;;7.28;2.63;;;;;;;18.62;100.00;101724.41;5070203;28;20417;-33
2022/07/24 03:34:03;;;;;;;6.20;2.70;;;;;;;18.63;100.00;101724.09;5070922;28;20516;-34
2022/07/24 03:36:32;;;;;;;6.15;3.00;;;;;;;18.62;100.00;101719.59;5071351;28;20052;-38
2022/07/24 03:38:59;;;;;;;7.70;3.17;;;;;;;18.62;100.00;101708.28;5069881;28;20047;-34
2022/07/24 03:41:29;;;;;;;5.68;2.40;;;;;;;18.64;100.00;101710.78;5071118;28;20052;-34
2022/07/24 03:43:57;;;;;;;5.25;2.65;;;;;;;18.62;100.00;101711.13;5070504;28;20036;-32
2022/07/24 03:46:25;;;;;;;4.55;2.33;;;;;;;18.61;100.00;101720.75;5070556;28;20062;-36
2022/07/24 03:48:53;;;;;;;6.35;2.33;;;;;;;18.61;100.00;101708.63;5070768;28;20060;-35
2022/07/24 03:51:20;;;;;;;5.78;2.60;;;;;;;18.59;100.00;101708.94;5071006;28;20036;-35
2022/07/24 03:53:49;;;;;;;5.15;2.65;;;;;;;18.58;100.00;101715.75;5070121;28;20060;-33
2022/07/24 03:56:17;;;;;;;5.30;2.60;;;;;;;18.57;100.00;101705.63;5074702;28;20055;-32
2022/07/24 03:58:46;;;;;;;4.45;2.10;;;;;;;18.56;100.00;101712.44;5073883;28;20054;-32
2022/07/24 04:01:14;;;;;;;5.93;2.22;;;;;;;18.54;100.00;101714.75;5074953;28;20060;-32
2022/07/24 04:03:42;;;;;;;5.55;1.70;;;;;;;18.53;100.00;101713.09;5074694;28;20044;-30
2022/07/24 04:06:10;;;;;;;6.68;2.28;;;;;;;18.52;100.00;101711.44;5073776;28;20044;-36
2022/07/24 04:08:38;;;;;;;6.85;2.83;;;;;;;18.50;100.00;101708.09;5074668;28;20083;-37
2022/07/24 04:11:07;;;;;;;4.20;2.53;;;;;;;18.49;100.00;101707.25;5074122;28;20044;-32
2022/07/24 04:13:35;;;;;;;7.15;2.58;;;;;;;18.49;100.00;101703.59;5073847;28;20525;-39
2022/07/24 04:16:11;;;;;;;4.28;2.28;;;;;;;18.48;100.00;101701.94;5074533;28;20049;-40
2022/07/24 04:18:39;;;;;;;7.32;2.58;;;;;;;18.48;100.00;101710.41;5054757;28;20125;-31
2022/07/24 04:21:07;;;;;;;6.13;2.50;;;;;;;18.48;100.00;101701.94;5073171;28;20036;-31
2022/07/24 04:23:35;;;;;;;5.97;2.40;;;;;;;18.49;100.00;101695.97;5074433;28;20049;-37
2022/07/24 04:26:03;;;;;;;6.63;2.30;;;;;;;18.50;100.00;101702.44;5073804;28;20480;-36
2022/07/24 04:28:31;;;;;;;5.30;2.22;;;;;;;18.51;100.00;101699.28;5073830;28;20076;-30
2022/07/24 04:30:59;;;;;;;5.45;2.42;;;;;;;18.52;100.00;101711.44;5073887;28;20131;-31
2022/07/24 04:33:28;;;;;;;5.65;2.50;;;;;;;18.53;100.00;101705.44;5074256;28;20098;-38
2022/07/24 04:35:56;;;;;;;5.70;2.20;;;;;;;18.53;100.00;101708.28;5073024;28;20058;-29
2022/07/24 04:38:24;;;;;;;5.63;2.13;;;;;;;18.56;100.00;101699.13;5074368;28;20189;-29
2022/07/24 04:40:52;;;;;;;3.90;2.00;;;;;;;18.58;100.00;101710.09;5073174;28;20136;-31
2022/07/24 04:43:20;;;;;;;5.78;2.05;;;;;;;18.59;100.00;101704.13;5068085;28;20542;-31
2022/07/24 04:45:48;;;;;;;6.63;2.53;;;;;;;18.64;100.00;101713.59;5073425;28;20463;-40
2022/07/24 04:48:16;;;;;;;6.10;2.33;;;;;;;18.67;100.00;101707.28;5072540;28;20416;-32
2022/07/24 04:50:45;;;;;;;5.15;2.33;;;;;;;18.70;100.00;101701.81;5073402;28;20044;-37
2022/07/24 04:53:13;;;;;;;6.80;2.33;;;;;;;18.71;100.00;101697.81;5073050;28;20050;-33
2022/07/24 04:55:40;;;;;;;5.70;2.33;;;;;;;18.75;100.00;101701.66;5072829;28;20053;-31
2022/07/24 04:58:08;;;;;;;5.32;2.10;;;;;;;18.78;100.00;101695.31;5073545;28;20467;-31
2022/07/24 05:00:36;;;;;;;4.03;2.08;;;;;;;18.81;100.00;101696.63;5073703;28;20036;-31
2022/07/24 05:03:04;;;;;;;5.35;2.22;;;;;;;18.83;100.00;101709.28;5072543;28;20044;-37
2022/07/24 05:05:32;;;;;;;4.72;2.38;;;;;;;18.88;100.00;101703.44;5073232;28;20192;-41
2022/07/24 05:08:01;;;;;;;5.72;2.40;;;;;;;18.92;100.00;101715.75;5071562;28;20055;-40
2022/07/24 05:10:29;;;;;;;6.88;2.58;;;;;;;18.97;100.00;101694.97;5072778;28;20058;-31
2022/07/24 05:12:57;;;;;;;8.25;2.33;;;;;;;19.07;100.00;101693.75;5072933;28;20058;-38
2022/07/24 05:15:30;;;;;;;5.80;2.28;;;;;;;19.16;100.00;101694.59;5068145;28;20057;-35
2022/07/24 05:17:58;;;;;;;4.05;2.30;;;;;;;19.25;100.00;101684.06;5072236;28;20128;-39
2022/07/24 05:20:26;;;;;;;6.25;2.50;;;;;;;19.34;100.00;101678.38;5073293;28;20552;-34
2022/07/24 05:22:54;;;;;;;7.97;2.60;;;;;;;19.43;100.00;101676.31;5072972;28;20476;-37
2022/07/24 05:25:23;;;;;;;6.43;2.20;;;;;;;19.54;100.00;101695.47;5072244;28;20507;-39
2022/07/24 05:27:51;;;;;;;4.88;2.38;;;;;;;19.66;100.00;101686.25;5072260;28;20489;-32
2022/07/24 05:30:19;;;;;;;4.65;2.28;;;;;;;19.77;100.00;101695.19;5072233;28;20056;-33
2022/07/24 05:32:46;;;;;;;6.40;2.22;;;;;;;19.86;100.00;101691.13;5071428;28;20131;-34
2022/07/24 05:35:14;;;;;;;5.65;2.13;;;;;;;19.94;100.00;101693.09;5073066;28;20052;-38
2022/07/24 05:37:55;;;;;;;5.75;2.20;;;;;;;20.00;100.00;101690.03;5072088;28;20056;-31
2022/07/24 05:40:24;;;;;;;5.80;2.10;;;;;;;20.09;100.00;101700.16;5072775;28;20083;-35
2022/07/24 05:42:52;;;;;;;6.90;2.08;;;;;;;20.17;100.00;101698.47;5071801;28;20048;-32
2022/07/24 05:45:20;;;;;;;7.78;2.50;;;;;;;20.19;100.00;101698.91;5071559;28;20421;-41
2022/07/24 05:47:47;;;;;;;5.95;2.30;;;;;;;20.23;100.00;101697.88;5072173;28;20087;-37
2022/07/24 05:50:15;;;;;;;4.95;2.60;;;;;;;20.26;100.00;101702.88;5072421;28;20052;-37
2022/07/24 05:52:43;;;;;;;7.65;2.33;;;;;;;20.28;100.00;101700.53;5071614;28;20049;-37
2022/07/24 05:55:11;;;;;;;5.45;2.40;;;;;;;20.32;100.00;101699.84;5072507;28;20044;-33
2022/07/24 05:57:46;;;;;;;8.23;2.88;;;;;;;20.33;100.00;101695.84;5071923;28;20462;-32
2022/07/24 06:00:18;;;;;;;6.75;2.65;;;;;;;20.35;100.00;101691.50;5068235;28;20045;-32
2022/07/24 06:02:50;;;;;;;5.55;2.20;;;;;;;20.38;100.00;101699.34;5072374;28;20048;-31
2022/07/24 06:05:18;;;;;;;7.30;2.40;;;;;;;20.38;100.00;101699.34;5071702;28;20063;-31
2022/07/24 06:07:46;;;;;;;7.10;2.47;;;;;;;20.41;100.00;101698.63;5072122;28;20055;-30
2022/07/24 06:10:14;;;;;;;5.75;2.50;;;;;;;20.42;100.00;101705.13;5072041;28;20048;-37
2022/07/24 06:12:42;;;;;;;5.90;2.28;;;;;;;20.42;100.00;101700.28;5070940;28;20041;-31
2022/07/24 06:15:12;;;;;;;9.38;2.58;;;;;;;20.44;100.00;101702.78;5071991;28;20468;-32
2022/07/24 06:17:40;;;;;;;7.72;2.28;;;;;;;20.43;100.00;101695.44;5072151;28;20397;-34
2022/07/24 06:20:12;;;;;;;5.00;2.17;;;;;;;20.46;100.00;101709.75;5069980;28;20523;-37
2022/07/24 06:22:40;;;;;;;6.85;2.22;;;;;;;20.46;100.00;101711.75;5072347;28;20076;-34
2022/07/24 06:25:16;;;;;;;7.72;1.77;;;;;;;20.47;100.00;101708.59;5071922;28;20504;-35
2022/07/24 06:27:45;;;;;;;7.95;2.33;;;;;;;20.47;100.00;101710.59;5070745;28;20057;-31
2022/07/24 06:30:16;;;;;;;5.35;1.95;;;;;;;20.52;100.00;101696.22;5071029;28;20071;-33
2022/07/24 06:32:44;;;;;;;6.53;2.10;;;;;;;20.57;100.00;101693.19;5071534;28;20087;-39
2022/07/24 06:35:12;;;;;;;6.55;1.88;;;;;;;20.63;100.00;101712.44;5070342;28;20058;-39
2022/07/24 06:37:40;;;;;;;6.35;1.90;;;;;;;20.67;100.00;101706.91;5071540;28;20048;-31
2022/07/24 06:40:15;;;;;;;4.10;2.00;;;;;;;20.73;100.00;101716.06;5071556;28;20048;-35
2022/07/24 06:42:43;;;;;;;5.85;2.40;;;;;;;20.79;100.00;101714.63;5070674;28;20049;-34
2022/07/24 06:45:11;;;;;;;4.82;1.77;;;;;;;20.84;100.00;101708.75;5071131;28;20047;-35
2022/07/24 06:47:41;;;;;;;5.88;2.08;;;;;;;20.95;100.00;101702.31;5070498;28;20055;-41
2022/07/24 06:50:10;;;;;;;4.68;2.22;;;;;;;21.05;100.00;101706.72;5071299;28;20056;-36
2022/07/24 06:52:38;;;;;;;5.13;1.90;;;;;;;21.23;100.00;101701.72;5071365;28;20044;-34
2022/07/24 06:55:07;;;;;;;7.00;2.10;;;;;;;21.45;100.00;101704.13;5070211;28;20044;-35
2022/07/24 06:57:36;;;;;;;5.78;1.95;;;;;;;21.69;100.00;101702.50;5060039;28;20157;-31
2022/07/24 07:00:07;;;;;;;4.85;2.03;;;;;;;21.84;100.00;101690.41;5071209;28;20516;-34
2022/07/24 07:02:35;;;;;;;4.60;1.92;;;;;;;21.94;100.00;101701.31;5070007;28;20143;-31
2022/07/24 07:05:05;;;;;;;5.78;2.10;;;;;;;21.88;100.00;101709.25;5071146;28;20072;-38
2022/07/24 07:07:33;;;;;;;6.47;1.90;;;;;;;21.85;100.00;101704.25;5071445;28;20094;-38
2022/07/24 07:10:00;;;;;;;6.20;2.00;;;;;;;21.85;100.00;101700.59;5069743;28;20055;-35
2022/07/24 07:12:28;;;;;;;6.50;2.22;;;;;;;22.07;100.00;101700.13;5070239;28;20087;-31
2022/07/24 07:14:58;;;;;;;6.53;1.85;;;;;;;22.35;100.00;101697.38;5071276;28;20386;-37
2022/07/24 07:17:26;;;;;;;4.80;2.28;;;;;;;22.55;100.00;101699.22;5070710;28;20052;-35
2022/07/24 07:19:54;;;;;;;5.03;2.13;;;;;;;22.91;100.00;101715.34;5071275;28;20087;-32
2022/07/24 07:22:23;;;;;;;6.10;2.15;;;;;;;23.34;100.00;101708.00;5071346;28;20117;-33
2022/07/24 07:24:51;;;;;;;4.68;1.92;;;;;;;23.66;100.00;101718.25;5070527;28;20139;-32
2022/07/24 07:27:19;;;;;;;7.35;1.90;;;;;;;24.02;98.82;101713.44;5070947;28;20087;-33
2022/07/24 07:29:46;;;;;;;4.40;2.20;;;;;;;24.27;96.05;101708.38;5072109;28;20048;-36
2022/07/24 07:32:14;;;;;;;5.80;1.92;;;;;;;24.53;93.80;101704.88;5075074;28;20047;-32
2022/07/24 07:34:42;;;;;;;4.82;2.00;;;;;;;24.70;91.70;101699.56;5075478;28;20048;-32
2022/07/24 07:37:10;;;;;;;5.43;1.70;;;;;;;24.85;90.41;101700.69;5074877;28;20489;-32
2022/07/24 07:39:39;;;;;;;3.58;1.45;;;;;;;25.00;90.02;101694.06;5055487;28;20076;-35
2022/07/24 07:42:07;;;;;;;4.10;1.60;;;;;;;25.18;88.37;101707.91;5069609;28;20048;-31
2022/07/24 07:44:37;;;;;;;3.92;1.65;;;;;;;25.25;86.49;101708.84;5074339;28;20146;-33
2022/07/24 07:47:06;;;;;;;7.28;1.70;;;;;;;25.20;87.20;101717.72;5074996;28;20563;-33
2022/07/24 07:49:34;;;;;;;5.05;1.55;;;;;;;25.42;86.56;101708.34;5074937;28;20056;-35
2022/07/24 07:52:02;;;;;;;4.25;1.75;;;;;;;25.62;84.36;101708.28;5073918;28;20049;-32
2022/07/24 07:54:30;;;;;;;5.30;1.77;;;;;;;25.76;83.70;101704.91;5074969;28;20048;-35
2022/07/24 07:56:59;;;;;;;5.55;2.05;;;;;;;25.87;82.42;101708.75;5074421;28;20563;-35
2022/07/24 07:59:27;;;;;;;6.13;2.05;;;;;;;25.95;82.05;101716.25;5074267;28;20101;-33
2022/07/24 08:01:55;;;;;;;4.45;1.67;;;;;;;25.99;80.87;101714.25;5074509;28;20124;-41
2022/07/24 08:04:24;;;;;;;4.97;1.73;;;;;;;26.02;80.98;101713.50;5074708;28;20052;-33
2022/07/24 08:06:52;;;;;;;5.30;1.90;;;;;;;26.20;80.73;101708.03;5073945;28;20045;-34
2022/07/24 08:09:20;;;;;;;4.07;1.58;;;;;;;26.37;78.98;101705.50;5063866;28;20144;-39
2022/07/24 08:11:48;;;;;;;7.65;2.38;;;;;;;26.47;77.06;101715.44;5073655;28;20592;-36
2022/07/24 08:14:17;;;;;;;5.10;1.83;;;;;;;26.40;76.90;101713.28;5074473;28;20049;-34
2022/07/24 08:16:45;;;;;;;4.68;2.08;;;;;;;26.43;77.67;101715.38;5074201;28;20052;-32
2022/07/24 08:19:13;;;;;;;3.83;1.88;;;;;;;26.49;76.77;101698.72;5070303;28;20413;-33
2022/07/24 08:21:41;;;;;;;4.18;1.77;;;;;;;26.69;75.69;101707.97;5074271;28;20048;-32
2022/07/24 08:24:09;;;;;;;5.57;1.80;;;;;;;26.85;74.97;101702.84;5074252;28;20052;-31
2022/07/24 08:26:36;;;;;;;4.18;1.73;;;;;;;26.93;73.51;101713.19;5073509;28;20060;-32
2022/07/24 08:29:05;;;;;;;5.32;1.70;;;;;;;27.05;73.45;101721.56;5074184;28;20131;-37
2022/07/24 08:31:35;;;;;;;5.28;1.77;;;;;;;26.98;69.71;101698.53;5074079;28;20048;-41
2022/07/24 08:34:03;;;;;;;6.10;1.85;;;;;;;26.90;70.16;101708.25;5072735;28;20044;-39
2022/07/24 08:36:31;;;;;;;4.45;1.60;;;;;;;26.91;71.70;101695.56;5069635;28;20867;-36
2022/07/24 08:38:59;;;;;;;6.22;1.70;;;;;;;27.26;70.75;101700.91;5073527;28;20062;-32
2022/07/24 08:41:32;;;;;;;5.32;1.70;;;;;;;27.58;69.18;101701.25;5072015;28;20131;-36
2022/07/24 08:44:00;;;;;;;6.00;1.85;;;;;;;27.62;65.40;101689.81;5072694;28;20060;-37
2022/07/24 08:46:29;;;;;;;5.07;1.58;;;;;;;27.62;67.00;101698.41;5073716;28;20132;-35
2022/07/24 08:49:07;;;;;;;3.40;1.42;;;;;;;27.70;66.24;101694.41;5071242;28;20098;-39
2022/07/24 08:51:39;;;;;;;4.18;1.70;;;;;;;27.61;66.08;101699.63;5074163;28;20040;-36
2022/07/24 08:54:07;;;;;;;5.55;1.90;;;;;;;27.55;66.41;101704.91;5073077;28;20079;-36
2022/07/24 08:56:36;;;;;;;4.82;1.70;;;;;;;27.51;67.35;101680.28;5073749;28;20140;-43
2022/07/24 08:59:05;;;;;;;4.97;1.70;;;;;;;27.58;66.48;101704.13;5073518;28;20413;-39
2022/07/24 09:01:33;;;;;;;4.47;1.50;;;;;;;27.60;66.57;101707.41;5073018;28;20697;-42
2022/07/24 09:04:02;;;;;;;4.15;1.48;;;;;;;27.59;65.81;101694.28;5073642;28;20079;-36
2022/07/24 09:06:30;;;;;;;4.38;1.63;;;;;;;27.50;65.88;101688.03;5073656;28;20139;-33
2022/07/24 09:08:59;;;;;;;5.18;1.70;;;;;;;27.57;66.03;101693.03;5072512;28;20107;-34
2022/07/24 09:11:29;;;;;;;5.93;1.60;;;;;;;27.56;65.26;101695.06;5073736;28;20044;-33
2022/07/24 09:16:47;;;;;;;4.43;1.65;;;;;;;27.28;65.94;101689.88;5063658;28;20049;-40
2022/07/24 09:19:16;;;;;;;5.78;1.75;;;;;;;27.00;67.43;101695.28;5073596;28;20044;-34
2022/07/24 09:21:49;;;;;;;7.90;1.90;;;;;;;26.75;68.58;101683.50;5062668;28;20044;-33
2022/07/24 09:24:19;;;;;;;3.80;1.73;;;;;;;26.75;69.46;101692.09;5072659;28;20091;-31
2022/07/24 09:26:48;;;;;;;5.25;1.90;;;;;;;26.76;69.08;101686.00;5073341;28;20068;-32
2022/07/24 09:29:19;;;;;;;5.40;2.03;;;;;;;26.87;68.38;101691.00;5072641;28;20055;-34
2022/07/24 09:31:55;;;;;;;6.70;1.52;;;;;;;27.00;68.19;101698.97;5073007;28;20294;-39
2022/07/24 09:34:24;;;;;;;5.85;1.80;;;;;;;27.06;68.52;101688.81;5072987;28;20070;-32
2022/07/24 09:37:00;;;;;;;5.95;2.08;;;;;;;27.00;67.43;101701.00;5072315;28;20040;-37
2022/07/24 09:39:29;;;;;;;4.35;1.75;;;;;;;26.68;68.69;101694.88;5073145;28;20052;-33
2022/07/24 09:41:58;;;;;;;5.25;1.73;;;;;;;26.57;70.90;101693.91;5072940;28;20415;-33
2022/07/24 09:44:26;;;;;;;5.50;1.90;;;;;;;26.92;69.78;101693.53;5072206;28;20048;-34
2022/07/24 09:46:58;;;;;;;7.25;1.77;;;;;;;27.22;68.06;101687.75;5072786;28;20045;-38
2022/07/24 09:49:28;;;;;;;4.32;1.85;;;;;;;27.46;66.89;101695.78;5073173;28;20062;-36
2022/07/24 09:52:13;;;;;;;5.13;2.10;;;;;;;27.59;63.66;101682.81;5071446;28;20044;-33
2022/07/24 09:54:42;;;;;;;6.32;2.17;;;;;;;27.51;64.66;101689.69;5071286;28;20044;-34
2022/07/24 09:57:19;;;;;;;6.90;1.98;;;;;;;27.38;62.78;101688.31;5072796;28;20090;-44
2022/07/24 09:59:48;;;;;;;6.22;1.65;;;;;;;27.46;63.74;101695.78;5073042;28;20414;-34
2022/07/24 10:02:25;;;;;;;5.07;1.40;;;;;;;27.60;64.24;101706.59;5072353;28;20040;-32
2022/07/24 10:04:54;;;;;;;6.07;1.67;;;;;;;27.36;63.24;101705.13;5071842;28;20102;-33
2022/07/24 10:07:24;;;;;;;4.93;1.60;;;;;;;27.12;63.51;101697.06;5072016;28;20052;-33
2022/07/24 10:09:55;;;;;;;3.90;1.55;;;;;;;27.13;62.91;101693.81;5072645;28;20044;-40
2022/07/24 10:12:25;;;;;;;3.97;1.80;;;;;;;27.17;61.91;101702.47;5071669;28;20048;-32
2022/07/24 10:14:56;;;;;;;4.57;1.65;;;;;;;26.92;63.19;101682.91;5062042;28;20048;-40
2022/07/24 10:17:34;;;;;;;5.85;1.58;;;;;;;26.80;64.38;101679.47;5071996;28;20068;-40
2022/07/24 10:20:06;;;;;;;4.50;1.77;;;;;;;26.93;64.86;101681.69;5071731;28;20059;-40
2022/07/24 10:23:02;;;;;;;6.70;2.20;;;;;;;27.02;64.11;101685.09;5071975;28;20040;-40
2022/07/24 10:25:46;;;;;;;5.45;1.60;;;;;;;27.22;63.59;101687.75;5071404;28;20067;-36
2022/07/24 10:28:20;;;;;;;6.18;1.65;;;;;;;27.39;62.43;101698.56;5071701;28;20527;-33
2022/07/24 10:30:48;;;;;;;4.53;1.70;;;;;;;27.69;62.14;101702.19;5072217;28;20390;-35
2022/07/24 10:33:17;;;;;;;4.55;1.77;;;;;;;27.99;60.26;101698.31;5070897;28;20051;-34
2022/07/24 10:35:48;;;;;;;5.13;1.80;;;;;;;28.06;59.35;101692.63;5071925;28;20051;-32
2022/07/24 10:38:28;;;;;;;7.00;1.67;;;;;;;28.02;59.17;101691.78;5071711;28;20066;-39
2022/07/24 10:41:01;;;;;;;4.40;1.77;;;;;;;28.03;58.89;101694.25;5071125;28;20055;-34
2022/07/24 10:43:29;;;;;;;4.57;1.50;;;;;;;28.08;58.27;101688.16;5071874;28;20052;-35
2022/07/24 10:46:18;;;;;;;5.82;1.60;;;;;;;28.02;55.90;101694.66;5071665;28;20048;-36
2022/07/24 10:48:46;;;;;;;5.82;1.65;;;;;;;27.79;58.08;101687.09;5066057;28;20133;-35
2022/07/24 10:51:21;;;;;;;6.90;1.67;;;;;;;27.77;57.58;101694.47;5072071;28;20098;-34
2022/07/24 10:53:56;;;;;;;5.00;1.60;;;;;;;27.66;56.37;101688.63;5070809;28;20049;-33
2022/07/24 10:56:26;;;;;;;3.63;1.40;;;;;;;27.63;58.55;101689.41;5071941;28;20060;-37
2022/07/24 10:59:04;;;;;;;3.85;1.50;;;;;;;27.70;57.77;101675.16;5071632;28;20139;-33
2022/07/24 11:01:36;;;;;;;4.43;1.65;;;;;;;27.76;57.81;101696.53;5050800;28;20049;-33
2022/07/24 11:04:25;;;;;;;5.80;1.60;;;;;;;27.74;55.74;101678.88;5067094;28;20082;-35
2022/07/24 11:06:56;;;;;;;5.70;1.90;;;;;;;27.90;57.14;101675.72;5051738;28;20093;-35
2022/07/24 11:09:26;;;;;;;5.20;1.60;;;;;;;28.01;55.63;101716.78;5068395;28;20768;-39
2022/07/24 11:12:06;;;;;;;7.07;1.98;;;;;;;27.87;54.85;101669.94;5071513;28;20040;-33
2022/07/24 11:14:49;;;;;;;4.60;1.58;;;;;;;27.89;55.10;101676.94;5071029;28;20098;-32
2022/07/24 11:17:39;;;;;;;5.78;1.52;;;;;;;27.86;55.32;101679.78;5071408;28;20044;-32
2022/07/24 11:20:08;;;;;;;4.70;1.60;;;;;;;27.81;55.01;101672.34;5071170;28;20036;-32
2022/07/24 11:22:49;;;;;;;3.53;1.70;;;;;;;27.77;55.83;101674.41;5070766;28;20052;-32
2022/07/24 11:25:19;;;;;;;4.90;1.50;;;;;;;27.92;55.71;101660.97;5070033;28;20044;-31
2022/07/24 11:27:51;;;;;;;4.95;1.58;;;;;;;27.99;54.65;101661.84;5071510;28;20052;-33
2022/07/24 11:30:19;;;;;;;;;;;;;;;27.96;54.32;101687.66;5070913;28;20052;-38
2022/07/24 11:32:48;;;;;;;3.85;1.40;;;;;;;27.84;55.24;101685.91;5071541;28;19927;-38